Terminal Aerodrome Forecast
Issued by NWS Huntsville, AL

Home | Current Version | Previous Version | Text Only | Print | Product List | Glossary On
Versions: 1 2 3 4 5 6 7 8 9 10 11 12 13 14 15 16 17 18 19 20 21 22 23 24 25 26 27
000
FTUS44 KHUN 030520
TAFMSL
TAF
KMSL 030520Z 0306/0406 05005KT P6SM OVC015
     FM030900 14005KT P6SM VCSH OVC015
     FM031200 15005KT 5SM -RA BR OVC009
     FM031800 18010KT 5SM -SHRA BR OVC015
      TEMPO 0321/0401 5SM -TSRA BR BKN009CB
     FM040100 20010KT 5SM -SHRA BR OVC015=

USA.gov is the U.S. government's official web portal to all federal, state and local government web resources and services.